Time;durP1;ratioP1;P1;durP2;ratioP2;P2;SDS_P1;SDS_P2;PMS_P1;PMS_P2;Temp;Humidity;BMP_temperature;BMP_pressure;BME280_temperature;BME280_humidity;BME280_pressure;Samples;Min_cycle;Max_cycle;Signal;HPM_P1;HPM_P2
2022/09/02 00:00:34;;;;;;;23.40;4.80;;;;;;;;;;5020195;28;20064;-69
2022/09/02 00:03:01;;;;;;;17.67;4.50;;;;;;;;;;5023667;28;20041;-72
2022/09/02 00:05:27;;;;;;;24.40;4.68;;;;;;;;;;5025819;28;20049;-69
2022/09/02 00:07:53;;;;;;;21.25;4.60;;;;;;;;;;5023448;28;20046;-68
2022/09/02 00:10:19;;;;;;;21.90;4.60;;;;;;;;;;5019854;28;20092;-69
2022/09/02 00:12:46;;;;;;;14.85;4.00;;;;;;;;;;5022215;28;20069;-70
2022/09/02 00:15:12;;;;;;;19.65;4.95;;;;;;;;;;5024321;28;20574;-68
2022/09/02 00:17:38;;;;;;;23.08;4.65;;;;;;;;;;5019860;28;20049;-70
2022/09/02 00:20:05;;;;;;;18.58;5.70;;;;;;;;;;5017702;28;20041;-68
2022/09/02 00:22:30;;;;;;;22.25;6.00;;;;;;;;;;5019216;28;20537;-68
2022/09/02 00:24:56;;;;;;;24.08;6.88;;;;;;;;;;5022373;28;20117;-69
2022/09/02 00:27:22;;;;;;;26.77;6.47;;;;;;;;;;5022088;28;20053;-69
2022/09/02 00:29:48;;;;;;;24.00;6.07;;;;;;;;;;5019360;28;20057;-69
2022/09/02 00:32:14;;;;;;;26.42;6.18;;;;;;;;;;5021584;28;20677;-69
2022/09/02 00:34:40;;;;;;;26.23;6.80;;;;;;;;;;5021981;28;20084;-70
2022/09/02 00:37:06;;;;;;;21.70;7.13;;;;;;;;;;5022049;28;20038;-68
2022/09/02 00:39:32;;;;;;;19.92;6.30;;;;;;;;;;5016971;28;20454;-68
2022/09/02 00:41:57;;;;;;;32.45;7.20;;;;;;;;;;5019036;28;20045;-68
2022/09/02 00:44:23;;;;;;;24.95;6.30;;;;;;;;;;5020978;28;20049;-67
2022/09/02 00:46:49;;;;;;;26.30;6.43;;;;;;;;;;5019656;28;20053;-69
2022/09/02 00:49:23;;;;;;;28.88;7.15;;;;;;;;;;5017577;28;20471;-69
2022/09/02 00:52:19;;;;;;;25.08;6.95;;;;;;;;;;5020467;28;20562;-69
2022/09/02 00:54:56;;;;;;;22.27;6.55;;;;;;;;;;5019715;28;20051;-68
2022/09/02 00:57:27;;;;;;;20.17;5.68;;;;;;;;;;5019717;28;20485;-70
2022/09/02 01:00:05;;;;;;;20.58;5.93;;;;;;;;;;5018556;28;20471;-68
2022/09/02 01:02:31;;;;;;;28.40;6.95;;;;;;;;;;5021246;28;20067;-69
2022/09/02 01:04:59;;;;;;;24.92;6.25;;;;;;;;;;5021108;28;20407;-71
2022/09/02 01:07:30;;;;;;;24.52;5.78;;;;;;;;;;5021261;28;20049;-69
2022/09/02 01:09:56;;;;;;;25.75;6.50;;;;;;;;;;5018642;28;20037;-68
2022/09/02 01:12:25;;;;;;;18.27;6.40;;;;;;;;;;5019733;28;20115;-70
2022/09/02 01:14:50;;;;;;;26.73;6.78;;;;;;;;;;5020103;28;20056;-71
2022/09/02 01:17:18;;;;;;;24.40;6.95;;;;;;;;;;5019765;28;20045;-68
2022/09/02 01:19:48;;;;;;;22.98;6.43;;;;;;;;;;5019497;28;20559;-67
2022/09/02 01:22:20;;;;;;;21.55;6.50;;;;;;;;;;5020162;28;20640;-70
2022/09/02 01:24:46;;;;;;;31.27;6.93;;;;;;;;;;5021603;28;20863;-68
2022/09/02 01:27:16;;;;;;;27.15;6.22;;;;;;;;;;5021842;28;20061;-69
2022/09/02 01:29:42;;;;;;;25.67;6.72;;;;;;;;;;5019568;28;20119;-69
2022/09/02 01:32:08;;;;;;;19.60;6.00;;;;;;;;;;5019010;28;20544;-68
2022/09/02 01:34:34;;;;;;;22.63;6.10;;;;;;;;;;5021137;28;20053;-66
2022/09/02 01:37:00;;;;;;;22.63;6.63;;;;;;;;;;5020220;28;20570;-67
2022/09/02 01:39:26;;;;;;;26.77;6.85;;;;;;;;;;5017369;28;20049;-68
2022/09/02 01:41:52;;;;;;;22.40;6.50;;;;;;;;;;5019699;28;20030;-69
2022/09/02 01:44:17;;;;;;;23.40;6.07;;;;;;;;;;5019853;28;20045;-68
2022/09/02 01:46:44;;;;;;;32.63;6.88;;;;;;;;;;5018546;28;20088;-69
2022/09/02 01:49:10;;;;;;;23.52;6.82;;;;;;;;;;5020056;28;20077;-70
2022/09/02 01:51:35;;;;;;;29.95;6.70;;;;;;;;;;5020468;28;20088;-69
2022/09/02 01:54:02;;;;;;;24.52;6.22;;;;;;;;;;5020149;28;20051;-69
2022/09/02 01:56:28;;;;;;;21.08;6.32;;;;;;;;;;5020151;28;20049;-69
2022/09/02 01:58:54;;;;;;;21.50;6.10;;;;;;;;;;5019755;28;20419;-69
2022/09/02 02:01:20;;;;;;;25.27;6.32;;;;;;;;;;5019296;28;20661;-68
2022/09/02 02:03:46;;;;;;;25.70;6.32;;;;;;;;;;5021421;28;20133;-67
2022/09/02 02:06:15;;;;;;;24.13;6.75;;;;;;;;;;5023834;28;20430;-69
2022/09/02 02:08:42;;;;;;;25.75;7.10;;;;;;;;;;5022263;28;20055;-69
2022/09/02 02:11:08;;;;;;;26.25;6.57;;;;;;;;;;5023415;28;20099;-69
2022/09/02 02:13:35;;;;;;;34.30;8.13;;;;;;;;;;5026572;28;20071;-69
2022/09/02 02:16:02;;;;;;;22.52;6.35;;;;;;;;;;5022783;28;20041;-69
2022/09/02 02:18:28;;;;;;;29.55;7.10;;;;;;;;;;5023633;28;20277;-69
2022/09/02 02:20:55;;;;;;;19.67;6.57;;;;;;;;;;5021199;28;20037;-68
2022/09/02 02:23:23;;;;;;;28.17;7.20;;;;;;;;;;5021149;28;20052;-70
2022/09/02 02:25:49;;;;;;;20.48;6.32;;;;;;;;;;5024913;28;20495;-70
2022/09/02 02:28:15;;;;;;;25.17;7.15;;;;;;;;;;5024975;28;20175;-69
2022/09/02 02:30:41;;;;;;;19.30;6.13;;;;;;;;;;5020261;28;20053;-69
2022/09/02 02:33:07;;;;;;;23.88;6.68;;;;;;;;;;5024424;28;20500;-68
2022/09/02 02:35:33;;;;;;;22.73;6.10;;;;;;;;;;5023641;28;20049;-69
2022/09/02 02:37:59;;;;;;;23.17;5.70;;;;;;;;;;5019739;28;20061;-69
2022/09/02 02:40:27;;;;;;;22.33;6.18;;;;;;;;;;5021890;28;20285;-69
2022/09/02 02:42:53;;;;;;;32.88;6.90;;;;;;;;;;5024645;28;20061;-68
2022/09/02 02:45:21;;;;;;;24.25;5.93;;;;;;;;;;5025412;28;20045;-67
2022/09/02 02:47:47;;;;;;;26.67;6.70;;;;;;;;;;5025570;28;20136;-69
2022/09/02 02:50:15;;;;;;;28.95;6.57;;;;;;;;;;5024293;28;20128;-69
2022/09/02 02:52:42;;;;;;;23.05;6.53;;;;;;;;;;5024443;28;20060;-69
2022/09/02 02:55:09;;;;;;;24.30;6.18;;;;;;;;;;5024540;28;20045;-70
2022/09/02 02:57:37;;;;;;;26.10;6.32;;;;;;;;;;5024827;28;20608;-67
2022/09/02 03:00:25;;;;;;;23.00;6.30;;;;;;;;;;5022286;28;20115;-67
2022/09/02 03:03:11;;;;;;;22.55;5.85;;;;;;;;;;5023778;28;20042;-69
2022/09/02 03:05:38;;;;;;;20.98;5.75;;;;;;;;;;5026187;28;20061;-69
2022/09/02 03:08:06;;;;;;;21.98;6.30;;;;;;;;;;5023618;28;20046;-68
2022/09/02 03:10:33;;;;;;;22.10;6.63;;;;;;;;;;5019991;28;20559;-68
2022/09/02 03:13:00;;;;;;;20.38;5.57;;;;;;;;;;5024572;28;20052;-69
2022/09/02 03:15:28;;;;;;;22.80;5.97;;;;;;;;;;5024889;28;20045;-68
2022/09/02 03:17:55;;;;;;;21.30;5.80;;;;;;;;;;5019514;28;20088;-68
2022/09/02 03:20:23;;;;;;;23.70;5.70;;;;;;;;;;5019949;28;20091;-67
2022/09/02 03:22:50;;;;;;;21.17;6.07;;;;;;;;;;5023221;28;20475;-68
2022/09/02 03:25:19;;;;;;;23.13;5.95;;;;;;;;;;5024848;28;20065;-67
2022/09/02 03:27:45;;;;;;;22.35;5.60;;;;;;;;;;5023078;28;20046;-68
2022/09/02 03:30:15;;;;;;;19.45;5.75;;;;;;;;;;5023471;28;20190;-70
2022/09/02 03:32:41;;;;;;;23.67;6.20;;;;;;;;;;5027637;28;20045;-70
2022/09/02 03:35:14;;;;;;;19.70;5.60;;;;;;;;;;5024930;28;20591;-69
2022/09/02 03:37:40;;;;;;;17.45;5.55;;;;;;;;;;5023411;28;20041;-66
2022/09/02 03:40:09;;;;;;;21.83;6.07;;;;;;;;;;5022241;28;20482;-68
2022/09/02 03:42:35;;;;;;;24.73;6.45;;;;;;;;;;5025622;28;20060;-68
2022/09/02 03:45:02;;;;;;;17.67;5.95;;;;;;;;;;5019964;28;20417;-68
2022/09/02 03:47:28;;;;;;;19.80;6.43;;;;;;;;;;5018176;28;20517;-70
2022/09/02 03:49:55;;;;;;;26.35;6.32;;;;;;;;;;5020838;28;20467;-69
2022/09/02 03:52:21;;;;;;;26.42;6.15;;;;;;;;;;5023892;28;20045;-69
2022/09/02 03:54:46;;;;;;;21.17;6.50;;;;;;;;;;5023258;28;20060;-67
2022/09/02 03:57:12;;;;;;;19.40;5.85;;;;;;;;;;5023318;28;20532;-68
2022/09/02 03:59:38;;;;;;;15.82;5.05;;;;;;;;;;5021535;28;20045;-67
2022/09/02 04:02:04;;;;;;;24.05;6.07;;;;;;;;;;5021178;28;20046;-70
2022/09/02 04:04:31;;;;;;;17.77;5.72;;;;;;;;;;5025338;28;20419;-69
2022/09/02 04:06:57;;;;;;;24.45;5.82;;;;;;;;;;5024779;28;20045;-68
2022/09/02 04:09:24;;;;;;;17.65;5.18;;;;;;;;;;5017895;28;20084;-68
2022/09/02 04:11:50;;;;;;;28.52;5.53;;;;;;;;;;5022319;28;20068;-71
2022/09/02 04:14:16;;;;;;;18.92;4.97;;;;;;;;;;5021107;28;20053;-70
2022/09/02 04:16:42;;;;;;;21.52;6.07;;;;;;;;;;5021265;28;20064;-69
2022/09/02 04:19:08;;;;;;;16.35;5.55;;;;;;;;;;5017520;28;20049;-68
2022/09/02 04:21:37;;;;;;;31.35;6.32;;;;;;;;;;5023164;28;20503;-69
2022/09/02 04:24:05;;;;;;;20.95;5.53;;;;;;;;;;5024479;28;20100;-68
2022/09/02 04:26:32;;;;;;;18.77;5.38;;;;;;;;;;5023485;28;20054;-67
2022/09/02 04:28:58;;;;;;;25.73;5.75;;;;;;;;;;5018857;28;20422;-70
2022/09/02 04:31:25;;;;;;;19.70;5.70;;;;;;;;;;5019513;28;20107;-70
2022/09/02 04:33:52;;;;;;;22.60;6.15;;;;;;;;;;5022286;28;20404;-69
2022/09/02 04:36:18;;;;;;;20.48;6.57;;;;;;;;;;5024262;28;20512;-69
2022/09/02 04:38:45;;;;;;;21.30;6.00;;;;;;;;;;5018621;28;20917;-68
2022/09/02 04:41:21;;;;;;;28.92;6.13;;;;;;;;;;5023302;28;20053;-69
2022/09/02 04:43:48;;;;;;;16.40;5.68;;;;;;;;;;5026532;28;20426;-67
2022/09/02 04:46:15;;;;;;;18.63;5.55;;;;;;;;;;5023083;28;20054;-68
2022/09/02 04:48:42;;;;;;;22.05;5.68;;;;;;;;;;5017524;28;20183;-68
2022/09/02 04:51:12;;;;;;;18.50;5.25;;;;;;;;;;5017002;28;20053;-69
2022/09/02 04:53:39;;;;;;;22.35;5.82;;;;;;;;;;5021195;28;20064;-68
2022/09/02 04:56:07;;;;;;;19.48;6.50;;;;;;;;;;5020928;28;20060;-70
2022/09/02 04:58:34;;;;;;;22.67;6.22;;;;;;;;;;5019177;28;20267;-72
2022/09/02 05:01:08;;;;;;;21.83;6.35;;;;;;;;;;5019644;28;20057;-70
2022/09/02 05:03:34;;;;;;;;;;;;;;;;;;5014018;28;20045;-70
2022/09/02 05:06:02;;;;;;;20.98;7.03;;;;;;;;;;5021200;28;19924;-74
2022/09/02 05:08:28;;;;;;;25.98;7.47;;;;;;;;;;5018269;28;20507;-71
2022/09/02 05:10:54;;;;;;;26.05;7.00;;;;;;;;;;5018178;28;20042;-71
2022/09/02 05:13:22;;;;;;;27.15;7.43;;;;;;;;;;5021173;28;20384;-70
2022/09/02 05:15:48;;;;;;;21.73;6.75;;;;;;;;;;5022203;28;20072;-72
2022/09/02 05:18:15;;;;;;;17.92;6.55;;;;;;;;;;5021124;28;20057;-74
2022/09/02 05:20:42;;;;;;;19.95;6.78;;;;;;;;;;5020262;28;20052;-70
2022/09/02 05:23:10;;;;;;;22.65;6.78;;;;;;;;;;5022529;28;20129;-69
2022/09/02 05:25:39;;;;;;;28.23;6.93;;;;;;;;;;5023800;28;20045;-70
2022/09/02 05:28:09;;;;;;;20.85;7.22;;;;;;;;;;5025248;28;20052;-70
2022/09/02 05:30:38;;;;;;;20.48;6.18;;;;;;;;;;5018814;28;20491;-71
2022/09/02 05:33:04;;;;;;;16.58;5.70;;;;;;;;;;5020283;28;20462;-71
2022/09/02 05:35:30;;;;;;;22.98;6.40;;;;;;;;;;5024264;28;20049;-69
2022/09/02 05:37:56;;;;;;;24.02;6.82;;;;;;;;;;5021405;28;20129;-70
2022/09/02 05:40:23;;;;;;;23.08;6.60;;;;;;;;;;5022779;28;20048;-69
2022/09/02 05:42:49;;;;;;;32.83;7.72;;;;;;;;;;5025264;28;20450;-70
2022/09/02 05:45:15;;;;;;;14.80;5.75;;;;;;;;;;5025117;28;20533;-73
2022/09/02 05:47:41;;;;;;;22.08;5.97;;;;;;;;;;5022309;28;20077;-70
2022/09/02 05:50:07;;;;;;;26.13;6.65;;;;;;;;;;5022161;28;20049;-69
2022/09/02 05:52:33;;;;;;;23.25;6.90;;;;;;;;;;5024292;28;20822;-71
2022/09/02 05:54:59;;;;;;;16.95;6.03;;;;;;;;;;5026189;28;20132;-70
2022/09/02 05:57:25;;;;;;;28.92;6.15;;;;;;;;;;5024335;28;20134;-72
2022/09/02 05:59:55;;;;;;;19.52;6.15;;;;;;;;;;5021866;28;20041;-71
2022/09/02 06:02:23;;;;;;;20.83;7.18;;;;;;;;;;5025965;28;20467;-72
2022/09/02 06:04:51;;;;;;;22.38;6.95;;;;;;;;;;5024776;28;20345;-73
2022/09/02 06:07:19;;;;;;;26.13;7.78;;;;;;;;;;5023832;28;20065;-72
2022/09/02 06:09:45;;;;;;;24.33;7.47;;;;;;;;;;5019097;28;20046;-72
2022/09/02 06:12:13;;;;;;;23.92;7.57;;;;;;;;;;5027727;28;20421;-71
2022/09/02 06:14:40;;;;;;;25.23;6.82;;;;;;;;;;5022839;28;20131;-72
2022/09/02 06:17:07;;;;;;;37.67;6.75;;;;;;;;;;5023454;28;20124;-71
2022/09/02 06:19:34;;;;;;;19.42;5.28;;;;;;;;;;5020756;28;20054;-71
2022/09/02 06:22:01;;;;;;;16.30;4.43;;;;;;;;;;5025336;28;20051;-73
2022/09/02 06:24:28;;;;;;;13.80;4.05;;;;;;;;;;5025220;28;20145;-71
2022/09/02 06:26:54;;;;;;;17.98;4.63;;;;;;;;;;5007774;28;20430;-71
2022/09/02 06:29:21;;;;;;;19.13;5.05;;;;;;;;;;5014219;28;20361;-71
2022/09/02 06:31:49;;;;;;;14.90;4.60;;;;;;;;;;5026249;28;20049;-72
2022/09/02 06:34:16;;;;;;;17.63;4.00;;;;;;;;;;5029508;28;20110;-72
2022/09/02 06:36:45;;;;;;;13.32;4.30;;;;;;;;;;5025223;28;20046;-73
2022/09/02 06:39:14;;;;;;;12.63;4.45;;;;;;;;;;5031043;28;20452;-72
2022/09/02 06:41:41;;;;;;;21.45;5.25;;;;;;;;;;5027401;28;20053;-70
2022/09/02 06:44:09;;;;;;;17.35;3.95;;;;;;;;;;5030214;28;20128;-72
2022/09/02 06:46:45;;;;;;;17.20;4.30;;;;;;;;;;5021909;28;20080;-72
2022/09/02 06:49:12;;;;;;;18.45;3.97;;;;;;;;;;5023362;28;20052;-72
2022/09/02 06:51:42;;;;;;;13.20;3.20;;;;;;;;;;5030536;28;20045;-70
2022/09/02 06:54:11;;;;;;;13.35;3.00;;;;;;;;;;5020018;28;20067;-70
2022/09/02 06:56:37;;;;;;;8.75;2.45;;;;;;;;;;5025858;28;20050;-70
2022/09/02 06:59:05;;;;;;;9.68;2.40;;;;;;;;;;5018385;28;20311;-69
2022/09/02 07:01:32;;;;;;;10.27;2.20;;;;;;;;;;5025911;28;20049;-69
2022/09/02 07:06:51;;;;;;;5.88;1.95;;;;;;;;;;5024631;28;20033;-68
2022/09/02 07:09:20;;;;;;;9.25;2.13;;;;;;;;;;5029569;28;20052;-69
2022/09/02 07:11:47;;;;;;;8.52;1.92;;;;;;;;;;5027933;28;20124;-68
2022/09/02 07:14:19;;;;;;;8.63;2.10;;;;;;;;;;5027389;28;20101;-67
2022/09/02 07:16:50;;;;;;;7.55;2.35;;;;;;;;;;5026279;28;20048;-68
2022/09/02 07:19:18;;;;;;;4.60;2.17;;;;;;;;;;5021860;28;20067;-68
2022/09/02 07:21:45;;;;;;;9.38;2.95;;;;;;;;;;5030464;28;20104;-68
2022/09/02 07:24:12;;;;;;;8.43;2.20;;;;;;;;;;5024991;28;20136;-68
2022/09/02 07:26:39;;;;;;;8.93;2.53;;;;;;;;;;5029586;28;20119;-69
2022/09/02 07:29:07;;;;;;;9.18;2.28;;;;;;;;;;5030294;28;20402;-67
2022/09/02 07:31:38;;;;;;;13.23;1.98;;;;;;;;;;5030615;28;20052;-68
2022/09/02 07:34:05;;;;;;;4.30;1.60;;;;;;;;;;5028993;28;20572;-67
2022/09/02 07:36:33;;;;;;;5.50;1.67;;;;;;;;;;5032531;28;20433;-67
2022/09/02 07:39:00;;;;;;;6.90;1.67;;;;;;;;;;5029809;28;20043;-67
2022/09/02 07:41:26;;;;;;;5.88;1.50;;;;;;;;;;5023293;28;20399;-69
2022/09/02 07:43:52;;;;;;;3.85;1.38;;;;;;;;;;5028140;28;20531;-68
2022/09/02 07:46:18;;;;;;;9.82;1.70;;;;;;;;;;5025601;28;20114;-68
2022/09/02 07:48:44;;;;;;;6.32;1.63;;;;;;;;;;5026839;28;20133;-68
2022/09/02 07:51:11;;;;;;;9.45;2.17;;;;;;;;;;5025790;28;20096;-67
2022/09/02 07:53:37;;;;;;;10.40;1.65;;;;;;;;;;5028576;28;20055;-68
2022/09/02 07:56:03;;;;;;;2.15;1.50;;;;;;;;;;5027678;28;20037;-68
2022/09/02 07:58:29;;;;;;;7.30;1.52;;;;;;;;;;5028464;28;20048;-67
2022/09/02 08:00:55;;;;;;;8.65;1.73;;;;;;;;;;5024966;28;20053;-70
2022/09/02 08:03:25;;;;;;;6.75;1.63;;;;;;;;;;5021060;28;20491;-69
2022/09/02 08:05:52;;;;;;;12.10;1.60;;;;;;;;;;5028236;28;20589;-69
2022/09/02 08:08:20;;;;;;;8.82;2.15;;;;;;;;;;5026244;28;20053;-69
2022/09/02 08:10:50;;;;;;;6.55;2.05;;;;;;;;;;5028953;28;20045;-69
2022/09/02 08:13:17;;;;;;;5.80;2.33;;;;;;;;;;5023889;28;20065;-68
2022/09/02 08:15:44;;;;;;;23.98;2.60;;;;;;;;;;5025323;28;20076;-68
2022/09/02 08:18:10;;;;;;;6.10;2.40;;;;;;;;;;5025106;28;20041;-69
2022/09/02 08:20:37;;;;;;;6.82;2.67;;;;;;;;;;5026651;28;20124;-69
2022/09/02 08:23:05;;;;;;;6.60;2.10;;;;;;;;;;5016901;28;20114;-68
2022/09/02 08:25:32;;;;;;;6.80;2.13;;;;;;;;;;5026135;28;20156;-69
2022/09/02 08:27:58;;;;;;;7.32;2.13;;;;;;;;;;5027008;28;20095;-69
2022/09/02 08:30:24;;;;;;;9.65;2.13;;;;;;;;;;5027573;28;20053;-69
2022/09/02 08:32:50;;;;;;;7.25;2.50;;;;;;;;;;5028618;28;20053;-69
2022/09/02 08:35:16;;;;;;;6.55;2.10;;;;;;;;;;5025318;28;20052;-67
2022/09/02 08:37:42;;;;;;;8.32;1.80;;;;;;;;;;5021707;28;20050;-69
2022/09/02 08:40:15;;;;;;;8.52;1.90;;;;;;;;;;5019941;28;20041;-71
2022/09/02 08:42:47;;;;;;;8.43;1.65;;;;;;;;;;5027348;28;20479;-69
2022/09/02 08:45:24;;;;;;;7.00;1.73;;;;;;;;;;5027538;28;20091;-69
2022/09/02 08:48:00;;;;;;;4.03;1.30;;;;;;;;;;5023216;28;20052;-68
2022/09/02 08:50:29;;;;;;;9.02;1.77;;;;;;;;;;5026098;28;20049;-68
2022/09/02 08:53:03;;;;;;;6.93;1.50;;;;;;;;;;5027928;28;20037;-68
2022/09/02 08:55:55;;;;;;;6.18;1.45;;;;;;;;;;5020269;28;20499;-68
2022/09/02 08:58:27;;;;;;;5.68;1.75;;;;;;;;;;5023432;28;20057;-68
2022/09/02 09:01:14;;;;;;;8.40;1.40;;;;;;;;;;5023527;28;20053;-70
2022/09/02 09:04:01;;;;;;;4.95;1.60;;;;;;;;;;5027576;28;20086;-70
2022/09/02 09:07:03;;;;;;;2.60;1.27;;;;;;;;;;5025253;28;20076;-68
2022/09/02 09:09:31;;;;;;;6.35;1.50;;;;;;;;;;5021093;28;20050;-68
2022/09/02 09:12:25;;;;;;;4.57;1.60;;;;;;;;;;5026613;28;20498;-68
2022/09/02 09:15:04;;;;;;;4.00;1.48;;;;;;;;;;5015525;28;20045;-68
2022/09/02 09:17:48;;;;;;;7.82;1.60;;;;;;;;;;5021924;28;20141;-70
2022/09/02 09:20:19;;;;;;;5.20;1.45;;;;;;;;;;5026983;28;20073;-75
2022/09/02 09:22:48;;;;;;;8.68;1.40;;;;;;;;;;5028138;28;20080;-67
2022/09/02 09:25:16;;;;;;;5.47;1.50;;;;;;;;;;5025309;28;20045;-67
2022/09/02 09:27:44;;;;;;;3.08;1.50;;;;;;;;;;5027661;28;20367;-67
2022/09/02 09:30:12;;;;;;;8.77;1.80;;;;;;;;;;5022443;28;20160;-69
2022/09/02 09:33:01;;;;;;;10.90;2.10;;;;;;;;;;5019990;28;20443;-69
2022/09/02 09:35:46;;;;;;;6.82;1.65;;;;;;;;;;5019905;28;20097;-66
2022/09/02 09:38:13;;;;;;;5.70;1.58;;;;;;;;;;5023876;28;20049;-68
2022/09/02 09:40:39;;;;;;;5.68;1.60;;;;;;;;;;5025349;28;20080;-69
2022/09/02 09:43:05;;;;;;;5.60;1.58;;;;;;;;;;5026025;28;20103;-69
2022/09/02 09:45:41;;;;;;;3.28;1.45;;;;;;;;;;5018958;28;20104;-68
2022/09/02 09:48:17;;;;;;;6.25;1.60;;;;;;;;;;5022583;28;20488;-68
2022/09/02 09:50:45;;;;;;;3.28;1.40;;;;;;;;;;5019805;28;20037;-68
2022/09/02 09:53:19;;;;;;;4.15;1.60;;;;;;;;;;5013843;28;20045;-67
2022/09/02 09:56:05;;;;;;;5.15;1.45;;;;;;;;;;5024035;28;20045;-67
2022/09/02 09:58:41;;;;;;;8.15;1.92;;;;;;;;;;5020726;28;20053;-69
2022/09/02 10:01:18;;;;;;;5.13;1.58;;;;;;;;;;5025679;28;20060;-70
2022/09/02 10:03:54;;;;;;;8.95;1.40;;;;;;;;;;5021473;28;20053;-69
2022/09/02 10:06:32;;;;;;;4.43;1.55;;;;;;;;;;5024534;28;20056;-69
2022/09/02 10:09:24;;;;;;;3.13;1.38;;;;;;;;;;5016513;28;20055;-70
2022/09/02 10:11:59;;;;;;;7.35;1.42;;;;;;;;;;5021609;28;20051;-69
2022/09/02 10:14:45;;;;;;;3.72;1.20;;;;;;;;;;5022136;28;20045;-67
2022/09/02 10:17:14;;;;;;;5.28;1.48;;;;;;;;;;5017726;28;20050;-68
2022/09/02 10:20:06;;;;;;;4.43;1.50;;;;;;;;;;5018604;28;20057;-68
2022/09/02 10:23:16;;;;;;;8.70;1.77;;;;;;;;;;5071806;27;20335;-69
2022/09/02 10:26:13;;;;;;;2.85;1.40;;;;;;;;;;5051005;28;20056;-66
2022/09/02 10:28:59;;;;;;;4.30;1.42;;;;;;;;;;5060274;28;20197;-70
2022/09/02 10:31:30;;;;;;;4.30;1.40;;;;;;;;;;5058467;28;20045;-68
2022/09/02 10:34:14;;;;;;;1.20;1.10;;;;;;;;;;5055786;28;20041;-70
2022/09/02 10:36:55;;;;;;;2.80;1.20;;;;;;;;;;5056821;28;20052;-70
2022/09/02 10:39:30;;;;;;;8.98;1.58;;;;;;;;;;5058418;28;20044;-67
2022/09/02 10:42:09;;;;;;;2.88;1.50;;;;;;;;;;5061137;28;20048;-69
2022/09/02 10:45:11;;;;;;;2.13;1.42;;;;;;;;;;5056571;28;20707;-67
2022/09/02 10:47:39;;;;;;;2.60;1.30;;;;;;;;;;5059386;28;20059;-67
2022/09/02 10:50:16;;;;;;;6.00;1.50;;;;;;;;;;5054585;28;20041;-66
2022/09/02 10:53:09;;;;;;;3.85;1.30;;;;;;;;;;5055069;28;20060;-66
2022/09/02 10:56:00;;;;;;;5.05;1.20;;;;;;;;;;5053674;28;20057;-66
2022/09/02 10:58:58;;;;;;;8.55;1.40;;;;;;;;;;5052515;28;20132;-68
2022/09/02 11:01:28;;;;;;;6.13;1.48;;;;;;;;;;5060915;28;20060;-66
2022/09/02 11:04:02;;;;;;;4.38;1.30;;;;;;;;;;5061912;28;20043;-67
2022/09/02 11:06:31;;;;;;;2.88;1.30;;;;;;;;;;5057162;28;20130;-69
2022/09/02 11:09:05;;;;;;;4.10;1.40;;;;;;;;;;5094802;28;20071;-67
2022/09/02 11:11:52;;;;;;;6.20;1.40;;;;;;;;;;5062813;28;20040;-67
2022/09/02 11:14:21;;;;;;;2.10;1.20;;;;;;;;;;5056002;28;20383;-69
2022/09/02 11:16:57;;;;;;;5.43;1.20;;;;;;;;;;5064403;28;20565;-65
2022/09/02 11:19:50;;;;;;;3.55;1.30;;;;;;;;;;5060534;28;20167;-66
2022/09/02 11:22:35;;;;;;;4.10;1.45;;;;;;;;;;5062486;28;20095;-67
2022/09/02 11:25:04;;;;;;;4.45;1.30;;;;;;;;;;5048670;28;20482;-67
2022/09/02 11:27:49;;;;;;;6.75;1.40;;;;;;;;;;5061094;28;20055;-68
2022/09/02 11:30:17;;;;;;;3.53;1.27;;;;;;;;;;5060019;28;20063;-65
2022/09/02 11:32:54;;;;;;;5.03;1.20;;;;;;;;;;5053263;28;20053;-68
2022/09/02 11:35:28;;;;;;;4.47;1.65;;;;;;;;;;5034157;28;20065;-67
2022/09/02 11:37:53;;;;;;;5.03;1.30;;;;;;;;;;5039231;28;20461;-67
2022/09/02 11:40:38;;;;;;;5.15;1.40;;;;;;;;;;5047149;28;20053;-70
2022/09/02 11:43:34;;;;;;;5.22;1.27;;;;;;;;;;5046182;28;20045;-67
2022/09/02 11:46:30;;;;;;;3.28;1.20;;;;;;;;;;5037016;28;20119;-70
2022/09/02 11:49:28;;;;;;;2.65;1.35;;;;;;;;;;5036713;28;20149;-68
2022/09/02 11:52:02;;;;;;;3.92;1.50;;;;;;;;;;5039783;28;20060;-72
2022/09/02 11:54:37;;;;;;;4.53;1.30;;;;;;;;;;5045926;28;20389;-71
2022/09/02 11:57:05;;;;;;;5.53;1.20;;;;;;;;;;5041328;28;20091;-70
2022/09/02 11:59:49;;;;;;;1.77;1.00;;;;;;;;;;5043906;28;20415;-71
2022/09/02 12:02:42;;;;;;;3.38;1.20;;;;;;;;;;5045307;28;20493;-69
2022/09/02 12:05:30;;;;;;;3.07;0.93;;;;;;;;;;5031870;28;20049;-72
2022/09/02 12:07:58;;;;;;;4.45;1.10;;;;;;;;;;5046376;28;20052;-71
2022/09/02 12:10:42;;;;;;;1.45;1.10;;;;;;;;;;5046261;28;20045;-72
2022/09/02 12:13:27;;;;;;;3.65;1.05;;;;;;;;;;5043644;28;20708;-69
2022/09/02 12:16:15;;;;;;;2.10;1.40;;;;;;;;;;5038462;28;20065;-70
2022/09/02 12:18:43;;;;;;;6.93;1.20;;;;;;;;;;5045666;28;20057;-69
2022/09/02 12:21:16;;;;;;;3.63;1.33;;;;;;;;;;5042764;28;20061;-71
2022/09/02 12:23:46;;;;;;;1.23;1.00;;;;;;;;;;5045373;28;20059;-70
2022/09/02 12:26:12;;;;;;;2.75;1.02;;;;;;;;;;5043624;28;20057;-72
2022/09/02 12:28:38;;;;;;;6.15;1.10;;;;;;;;;;5046032;28;20103;-68
2022/09/02 12:31:07;;;;;;;3.35;1.10;;;;;;;;;;5043712;28;20134;-71
2022/09/02 12:33:52;;;;;;;2.35;1.20;;;;;;;;;;5044909;28;20323;-69
2022/09/02 12:36:38;;;;;;;2.65;1.15;;;;;;;;;;5048120;28;20049;-70
2022/09/02 12:39:21;;;;;;;5.45;1.20;;;;;;;;;;5043750;28;20548;-70
2022/09/02 12:41:55;;;;;;;10.98;1.30;;;;;;;;;;5041259;28;20079;-70
2022/09/02 12:44:45;;;;;;;1.77;1.10;;;;;;;;;;5045696;28;20101;-71
2022/09/02 12:47:49;;;;;;;2.05;1.02;;;;;;;;;;5042268;28;20766;-70
2022/09/02 12:50:25;;;;;;;5.75;1.23;;;;;;;;;;5033020;28;20045;-69
2022/09/02 12:53:06;;;;;;;2.38;1.10;;;;;;;;;;5042591;28;20053;-70
2022/09/02 12:55:34;;;;;;;2.35;1.13;;;;;;;;;;5046876;28;20049;-68
2022/09/02 12:58:15;;;;;;;4.43;0.85;;;;;;;;;;5046892;28;20053;-70
2022/09/02 13:00:44;;;;;;;2.33;1.10;;;;;;;;;;5042301;28;20151;-72
2022/09/02 13:03:20;;;;;;;2.42;1.00;;;;;;;;;;5042228;28;20512;-70
2022/09/02 13:05:55;;;;;;;4.28;1.20;;;;;;;;;;5041851;28;20451;-70
2022/09/02 13:08:39;;;;;;;3.28;1.20;;;;;;;;;;5047605;28;20125;-68
2022/09/02 13:11:24;;;;;;;6.35;1.27;;;;;;;;;;5048113;28;20052;-70
2022/09/02 13:13:49;;;;;;;4.25;0.90;;;;;;;;;;5047704;28;20136;-70
2022/09/02 13:16:56;;;;;;;3.42;1.00;;;;;;;;;;5040586;28;20053;-71
2022/09/02 13:19:45;;;;;;;2.05;1.02;;;;;;;;;;5037046;28;20543;-70
2022/09/02 13:22:50;;;;;;;6.00;1.00;;;;;;;;;;5040383;28;20053;-70
2022/09/02 13:25:39;;;;;;;2.10;1.00;;;;;;;;;;5039538;28;20131;-70
2022/09/02 13:28:38;;;;;;;3.65;1.10;;;;;;;;;;5023685;28;20103;-70
2022/09/02 13:31:23;;;;;;;3.50;0.98;;;;;;;;;;5047211;28;20036;-71
2022/09/02 13:34:10;;;;;;;4.43;1.27;;;;;;;;;;5044735;28;20053;-71
2022/09/02 13:36:37;;;;;;;2.65;0.90;;;;;;;;;;5039766;28;20145;-70
2022/09/02 13:39:32;;;;;;;4.03;1.00;;;;;;;;;;5038657;28;20046;-69
2022/09/02 13:41:58;;;;;;;3.30;1.05;;;;;;;;;;5033318;28;20538;-71
2022/09/02 13:44:29;;;;;;;2.72;1.00;;;;;;;;;;5043479;28;20231;-73
2022/09/02 13:47:16;;;;;;;4.10;0.98;;;;;;;;;;5050050;28;20053;-71
2022/09/02 13:49:46;;;;;;;5.45;1.13;;;;;;;;;;5050331;28;20410;-70
2022/09/02 13:52:19;;;;;;;1.60;0.82;;;;;;;;;;5046256;28;20048;-69
2022/09/02 13:54:50;;;;;;;6.65;1.20;;;;;;;;;;5042305;28;20052;-70
2022/09/02 13:57:24;;;;;;;3.38;1.00;;;;;;;;;;5046907;28;20037;-68
2022/09/02 13:59:51;;;;;;;;;;;;;;;;;;5046842;28;21012;-74
2022/09/02 14:02:22;;;;;;;5.75;1.10;;;;;;;;;;5041912;28;19936;-73
2022/09/02 14:04:53;;;;;;;2.15;0.93;;;;;;;;;;5048849;28;20049;-70
2022/09/02 14:07:27;;;;;;;4.82;1.02;;;;;;;;;;5047231;28;20255;-71
2022/09/02 14:09:53;;;;;;;3.67;0.90;;;;;;;;;;5042756;28;20056;-70
2022/09/02 14:12:19;;;;;;;3.05;0.75;;;;;;;;;;5046721;28;20495;-71
2022/09/02 14:14:46;;;;;;;3.08;1.00;;;;;;;;;;5046422;28;20110;-71
2022/09/02 14:17:21;;;;;;;3.58;0.98;;;;;;;;;;5046918;28;20453;-72
2022/09/02 14:19:51;;;;;;;5.47;1.00;;;;;;;;;;5036424;28;20042;-70
2022/09/02 14:22:22;;;;;;;3.85;0.80;;;;;;;;;;5045898;28;20061;-70
2022/09/02 14:24:49;;;;;;;3.13;1.20;;;;;;;;;;5046460;28;20104;-69
2022/09/02 14:27:20;;;;;;;0.82;0.80;;;;;;;;;;5037552;28;20116;-69
2022/09/02 14:29:50;;;;;;;2.42;0.80;;;;;;;;;;5047038;28;20072;-67
2022/09/02 14:32:27;;;;;;;2.40;1.00;;;;;;;;;;5041673;28;20497;-68
2022/09/02 14:35:15;;;;;;;3.45;0.93;;;;;;;;;;5047248;28;20052;-70
2022/09/02 14:37:56;;;;;;;3.80;0.80;;;;;;;;;;5041452;28;20053;-72
2022/09/02 14:41:09;;;;;;;6.50;1.00;;;;;;;;;;5045335;28;20045;-69
2022/09/02 14:43:57;;;;;;;2.65;1.00;;;;;;;;;;5038914;28;20067;-69
2022/09/02 14:46:28;;;;;;;2.13;1.00;;;;;;;;;;5044969;28;20073;-71
2022/09/02 14:49:07;;;;;;;1.77;0.80;;;;;;;;;;5040157;28;20136;-70
2022/09/02 14:51:42;;;;;;;2.05;1.00;;;;;;;;;;5030076;28;20383;-71
2022/09/02 14:54:10;;;;;;;4.38;0.90;;;;;;;;;;5047167;28;20049;-70
2022/09/02 14:56:50;;;;;;;3.97;0.90;;;;;;;;;;5040479;28;20045;-68
2022/09/02 14:59:17;;;;;;;2.42;0.88;;;;;;;;;;5049626;28;20125;-67
2022/09/02 15:01:50;;;;;;;2.00;1.10;;;;;;;;;;5039712;28;20049;-69
2022/09/02 15:04:18;;;;;;;3.00;0.95;;;;;;;;;;5043975;28;20038;-69
2022/09/02 15:06:45;;;;;;;2.10;0.93;;;;;;;;;;5047983;28;20083;-67
2022/09/02 15:09:14;;;;;;;1.58;0.90;;;;;;;;;;5045913;28;20048;-68